Time;durP1;ratioP1;P1;durP2;ratioP2;P2;SDS_P1;SDS_P2;PMS_P1;PMS_P2;Temp;Humidity;BMP_temperature;BMP_pressure;BME280_temperature;BME280_humidity;BME280_pressure;Samples;Min_cycle;Max_cycle;Signal;HPM_P1;HPM_P2
2022/05/30 00:01:10;;;;;;;15.98;5.32;;;19.80;99.90;;;;;;4786761;30;20483;-89
2022/05/30 00:03:37;;;;;;;11.55;5.57;;;19.80;99.90;;;;;;4786543;30;20050;-88
2022/05/30 00:06:08;;;;;;;17.20;5.65;;;19.80;99.90;;;;;;4786458;30;20119;-88
2022/05/30 00:08:35;;;;;;;14.80;5.38;;;19.80;99.90;;;;;;4771319;30;20035;-88
2022/05/30 00:11:08;;;;;;;17.58;5.75;;;19.80;99.90;;;;;;4771904;30;20102;-89
2022/05/30 00:13:36;;;;;;;14.88;5.13;;;19.80;99.90;;;;;;4770932;30;20036;-89
2022/05/30 00:16:08;;;;;;;12.55;5.30;;;19.80;99.90;;;;;;4785676;30;20073;-88
2022/05/30 00:18:34;;;;;;;13.25;5.75;;;19.80;99.90;;;;;;4786008;30;20052;-90
2022/05/30 00:21:01;;;;;;;17.63;5.65;;;19.70;99.90;;;;;;4771538;30;20032;-89
2022/05/30 00:23:28;;;;;;;22.65;5.85;;;19.80;99.90;;;;;;4786344;30;20059;-88
2022/05/30 00:25:54;;;;;;;14.63;5.03;;;19.80;99.90;;;;;;4756549;30;20032;-88
2022/05/30 00:28:22;;;;;;;16.60;5.28;;;19.70;99.90;;;;;;4786235;29;20132;-89
2022/05/30 00:30:49;;;;;;;17.15;5.88;;;19.80;99.90;;;;;;4771084;30;20040;-89
2022/05/30 00:33:17;;;;;;;18.98;5.78;;;19.70;99.90;;;;;;4784547;30;20035;-88
2022/05/30 00:35:45;;;;;;;16.23;5.80;;;19.70;99.90;;;;;;4785601;30;20490;-88
2022/05/30 00:38:11;;;;;;;15.80;5.95;;;19.70;99.90;;;;;;4785910;29;20035;-89
2022/05/30 00:40:38;;;;;;;12.57;6.13;;;19.70;99.90;;;;;;4771226;30;20028;-89
2022/05/30 00:43:27;;;;;;;20.95;6.95;;;19.70;99.90;;;;;;4795303;29;20020;-89
2022/05/30 00:45:56;;;;;;;16.08;6.05;;;19.80;99.90;;;;;;4794743;29;20103;-89
2022/05/30 00:48:28;;;;;;;21.73;5.97;;;19.70;99.90;;;;;;4776768;29;20489;-88
2022/05/30 00:51:00;;;;;;;18.25;6.53;;;19.80;99.90;;;;;;4755992;30;20093;-88
2022/05/30 00:53:29;;;;;;;13.65;6.03;;;19.70;99.90;;;;;;4785544;30;20057;-88
2022/05/30 00:55:57;;;;;;;14.27;6.13;;;19.70;99.90;;;;;;4770556;30;20027;-89
2022/05/30 00:58:28;;;;;;;17.00;6.80;;;19.70;99.90;;;;;;4770817;30;20039;-88
2022/05/30 01:00:54;;;;;;;19.23;7.25;;;19.80;99.90;;;;;;4770625;30;20517;-88
2022/05/30 01:09:16;;;;;;;17.27;6.32;;;19.80;99.90;;;;;;4734443;30;20049;-88
2022/05/30 01:11:52;;;;;;;19.33;6.25;;;19.80;99.90;;;;;;4734455;30;20039;-88
2022/05/30 01:14:31;;;;;;;32.08;7.43;;;19.90;99.90;;;;;;4747572;30;20404;-89
2022/05/30 01:16:59;;;;;;;17.20;6.10;;;19.90;99.90;;;;;;4785255;30;20036;-89
2022/05/30 01:19:42;;;;;;;16.02;7.30;;;19.90;99.90;;;;;;4770463;30;20076;-89
2022/05/30 01:22:53;;;;;;;18.35;6.97;;;19.90;99.90;;;;;;4785348;30;20031;-89
2022/05/30 01:25:38;;;;;;;18.75;6.25;;;19.90;99.90;;;;;;4769983;30;20040;-89
2022/05/30 01:28:39;;;;;;;20.08;6.50;;;19.90;99.90;;;;;;4770204;30;20038;-90
2022/05/30 01:31:07;;;;;;;15.50;6.78;;;19.90;99.90;;;;;;4785075;30;20105;-88
2022/05/30 01:33:35;;;;;;;18.27;7.50;;;19.90;99.90;;;;;;4784997;30;20494;-88
2022/05/30 01:36:03;;;;;;;18.85;6.93;;;19.90;99.90;;;;;;4770111;30;20122;-89
2022/05/30 01:38:30;;;;;;;20.23;6.70;;;19.90;99.90;;;;;;4770328;30;20039;-89
2022/05/30 01:41:00;;;;;;;15.45;6.70;;;19.90;99.90;;;;;;4770126;30;20397;-89
2022/05/30 01:43:28;;;;;;;17.60;6.60;;;19.90;99.90;;;;;;4785103;30;20035;-89
2022/05/30 01:46:11;;;;;;;14.63;6.75;;;19.90;99.90;;;;;;4769897;30;20048;-88
2022/05/30 01:48:48;;;;;;;13.60;6.97;;;19.90;99.90;;;;;;4784600;30;20043;-88
2022/05/30 01:51:18;;;;;;;20.55;7.13;;;19.90;99.90;;;;;;4784777;30;20109;-88
2022/05/30 01:53:51;;;;;;;20.95;7.53;;;19.90;99.90;;;;;;4769944;30;20028;-90
2022/05/30 01:56:21;;;;;;;17.10;7.73;;;19.90;99.90;;;;;;4784663;29;20044;-89
2022/05/30 01:58:49;;;;;;;20.40;7.32;;;19.90;99.90;;;;;;4769900;30;20452;-88
2022/05/30 02:01:48;;;;;;;16.35;6.63;;;19.90;99.90;;;;;;4781267;30;20039;-88
2022/05/30 02:04:18;;;;;;;18.85;7.00;;;19.90;99.90;;;;;;4769905;30;20044;-89
2022/05/30 02:06:45;;;;;;;16.23;6.63;;;19.90;99.90;;;;;;4784933;30;20047;-89
2022/05/30 02:09:13;;;;;;;18.52;7.50;;;20.00;99.90;;;;;;4754981;30;20440;-88
2022/05/30 02:11:43;;;;;;;18.52;7.38;;;20.00;99.90;;;;;;4770079;30;20074;-89
2022/05/30 02:14:33;;;;;;;19.40;6.97;;;20.00;99.90;;;;;;4774876;30;20043;-88
2022/05/30 02:17:00;;;;;;;19.15;7.93;;;20.00;99.90;;;;;;4755374;30;20035;-88
2022/05/30 02:19:30;;;;;;;19.70;7.10;;;20.00;99.90;;;;;;4769652;30;20055;-89
2022/05/30 02:21:59;;;;;;;23.83;6.43;;;20.00;99.90;;;;;;4784697;30;20040;-89
2022/05/30 02:24:26;;;;;;;16.20;6.75;;;20.10;99.90;;;;;;4770118;30;20047;-88
2022/05/30 02:26:53;;;;;;;23.45;7.65;;;20.10;99.90;;;;;;4784851;29;20036;-89
2022/05/30 02:29:20;;;;;;;21.10;6.93;;;20.10;99.90;;;;;;4780217;29;20028;-90
2022/05/30 02:31:58;;;;;;;21.83;7.65;;;20.10;99.90;;;;;;4778197;29;20016;-89
2022/05/30 02:37:12;;;;;;;24.60;7.20;;;20.10;99.90;;;;;;4785048;29;20042;-88
2022/05/30 02:39:40;;;;;;;14.10;7.43;;;20.10;99.90;;;;;;4773744;30;20028;-88
2022/05/30 02:42:26;;;;;;;24.00;8.27;;;20.10;99.90;;;;;;4787433;30;20050;-89
2022/05/30 02:44:53;;;;;;;20.13;7.70;;;20.10;99.90;;;;;;4759164;30;20052;-88
2022/05/30 02:47:21;;;;;;;19.17;7.88;;;20.10;99.90;;;;;;4773066;30;20034;-89
2022/05/30 02:49:57;;;;;;;25.75;8.77;;;20.10;99.90;;;;;;4773015;30;20102;-88
2022/05/30 02:52:24;;;;;;;18.70;7.95;;;20.10;99.90;;;;;;4759450;30;20035;-89
2022/05/30 02:54:50;;;;;;;24.67;8.70;;;20.20;99.90;;;;;;4774288;30;20119;-89
2022/05/30 02:57:24;;;;;;;26.65;9.13;;;20.20;99.90;;;;;;4788373;30;20046;-89
2022/05/30 02:59:50;;;;;;;25.90;9.20;;;20.20;99.90;;;;;;4772838;30;20432;-88
2022/05/30 03:02:17;;;;;;;19.85;10.00;;;20.20;99.90;;;;;;4772728;30;20486;-89
2022/05/30 03:04:45;;;;;;;22.23;9.13;;;20.20;99.90;;;;;;4772739;30;20040;-89
2022/05/30 03:07:12;;;;;;;24.50;9.48;;;20.20;99.90;;;;;;4772953;30;20036;-88
2022/05/30 03:09:39;;;;;;;21.15;9.27;;;20.20;99.90;;;;;;4787457;30;20040;-89
2022/05/30 03:12:23;;;;;;;21.40;9.23;;;20.20;99.90;;;;;;4757957;30;20042;-90
2022/05/30 03:14:51;;;;;;;17.33;8.40;;;20.20;99.90;;;;;;4757683;30;20036;-88
2022/05/30 03:17:18;;;;;;;23.77;9.63;;;20.20;99.90;;;;;;4772518;30;20036;-88
2022/05/30 03:19:51;;;;;;;24.02;10.07;;;20.30;99.90;;;;;;4772335;30;20051;-88
2022/05/30 03:22:18;;;;;;;22.05;9.90;;;20.30;99.90;;;;;;4787349;30;20040;-88
2022/05/30 03:25:03;;;;;;;20.45;10.27;;;20.30;99.90;;;;;;4773163;30;20105;-88
2022/05/30 03:27:30;;;;;;;21.23;10.40;;;20.30;99.90;;;;;;4787396;30;20052;-88
2022/05/30 03:29:56;;;;;;;24.38;10.40;;;20.30;99.90;;;;;;4772050;30;20036;-88
2022/05/30 03:32:23;;;;;;;26.02;10.57;;;20.40;99.90;;;;;;4772485;30;20036;-88
2022/05/30 03:34:50;;;;;;;26.77;10.95;;;20.40;99.90;;;;;;4772047;30;20028;-89
2022/05/30 03:37:18;;;;;;;21.35;9.75;;;20.40;99.90;;;;;;4771888;30;20154;-88
2022/05/30 03:39:51;;;;;;;22.52;10.60;;;20.40;99.90;;;;;;4771902;30;20487;-88
2022/05/30 03:42:44;;;;;;;18.27;10.95;;;20.50;99.90;;;;;;4783457;29;20081;-87
2022/05/30 03:45:20;;;;;;;21.92;11.00;;;20.50;99.90;;;;;;4786847;29;20517;-89
2022/05/30 03:47:48;;;;;;;22.20;10.57;;;20.50;99.90;;;;;;4771932;30;20047;-89
2022/05/30 03:50:24;;;;;;;22.00;10.60;;;20.50;99.90;;;;;;4771693;30;20039;-89
2022/05/30 03:52:51;;;;;;;17.55;9.75;;;20.60;99.90;;;;;;4786901;29;20031;-89
2022/05/30 03:55:22;;;;;;;24.83;10.95;;;20.60;99.90;;;;;;4756893;30;20044;-89
2022/05/30 03:57:51;;;;;;;21.00;10.15;;;20.70;99.90;;;;;;4786667;29;20043;-88
2022/05/30 04:00:22;;;;;;;20.77;9.50;;;20.70;99.90;;;;;;4756921;30;20034;-88
2022/05/30 04:02:54;;;;;;;16.30;9.07;;;20.80;99.90;;;;;;4786913;30;20028;-88
2022/05/30 04:05:22;;;;;;;24.10;8.68;;;20.90;99.90;;;;;;4786455;30;20039;-88
2022/05/30 04:07:48;;;;;;;22.33;9.98;;;20.90;99.90;;;;;;4771894;30;20024;-88
2022/05/30 04:10:34;;;;;;;21.50;8.85;;;21.00;99.90;;;;;;4785048;30;20461;-88
2022/05/30 04:13:19;;;;;;;17.17;8.43;;;21.00;99.90;;;;;;4784651;30;20133;-88
2022/05/30 04:16:12;;;;;;;19.52;8.15;;;21.10;99.90;;;;;;4788739;29;20031;-90
2022/05/30 04:18:39;;;;;;;15.85;7.90;;;21.10;99.90;;;;;;4800828;29;20432;-89
2022/05/30 04:21:09;;;;;;;12.65;7.55;;;21.20;99.90;;;;;;4786118;30;20440;-87
2022/05/30 04:23:43;;;;;;;20.05;8.40;;;21.30;99.90;;;;;;4786603;29;20494;-89
2022/05/30 04:26:16;;;;;;;13.60;6.45;;;21.30;99.90;;;;;;4771450;30;20044;-88
2022/05/30 04:28:48;;;;;;;16.70;6.60;;;21.30;99.90;;;;;;4786188;30;20099;-88
2022/05/30 04:31:33;;;;;;;10.98;6.03;;;21.40;99.90;;;;;;4784316;30;20051;-88
2022/05/30 04:34:00;;;;;;;11.48;5.53;;;21.40;99.90;;;;;;4786189;30;20402;-89
2022/05/30 04:36:28;;;;;;;11.77;5.55;;;21.80;99.90;;;;;;4771129;30;20036;-89
2022/05/30 04:38:56;;;;;;;15.05;6.10;;;22.10;99.90;;;;;;4771014;30;20031;-89
2022/05/30 04:41:41;;;;;;;15.15;5.72;;;22.10;99.90;;;;;;4784293;30;20038;-88
2022/05/30 04:44:26;;;;;;;13.85;4.68;;;22.00;99.90;;;;;;4784472;30;20097;-87
2022/05/30 04:47:12;;;;;;;10.82;5.35;;;22.30;99.90;;;;;;4771554;30;20081;-88
2022/05/30 04:49:46;;;;;;;12.80;5.10;;;22.30;99.90;;;;;;4770918;30;20085;-89
2022/05/30 04:52:14;;;;;;;14.02;4.65;;;22.50;99.90;;;;;;4771091;30;20039;-88
2022/05/30 04:54:41;;;;;;;10.00;4.13;;;23.20;99.90;;;;;;4770872;30;20484;-89
2022/05/30 04:57:47;;;;;;;12.70;4.38;;;23.30;99.90;;;;;;4770932;30;20042;-89
2022/05/30 05:00:37;;;;;;;12.98;4.38;;;23.60;99.90;;;;;;4770459;30;20094;-91
2022/05/30 05:03:03;;;;;;;7.53;3.95;;;24.50;99.90;;;;;;4785851;30;20577;-90
2022/05/30 05:05:30;;;;;;;8.02;4.03;;;24.70;99.90;;;;;;4771885;30;20156;-90
2022/05/30 05:08:20;;;;;;;7.30;4.30;;;24.50;99.90;;;;;;4770848;30;20398;-90
2022/05/30 05:11:12;;;;;;;11.00;4.13;;;24.30;99.90;;;;;;4764805;30;20131;-89
2022/05/30 05:13:57;;;;;;;11.70;5.20;;;23.90;99.90;;;;;;4765745;30;20064;-90
2022/05/30 05:16:54;;;;;;;14.30;5.65;;;23.70;99.90;;;;;;4725339;30;20052;-92
2022/05/30 05:19:21;;;;;;;12.27;5.57;;;23.10;99.90;;;;;;4767906;30;20055;-90
2022/05/30 05:21:50;;;;;;;12.43;4.97;;;23.10;99.90;;;;;;4781378;30;20097;-89
2022/05/30 05:24:17;;;;;;;10.00;4.72;;;24.00;99.90;;;;;;4766767;30;20512;-90
2022/05/30 05:27:05;;;;;;;9.10;5.03;;;24.40;99.90;;;;;;4753501;30;20126;-90
2022/05/30 05:29:32;;;;;;;10.20;4.68;;;24.20;99.90;;;;;;4767061;30;20040;-89
2022/05/30 05:32:01;;;;;;;14.07;5.38;;;24.80;99.90;;;;;;4752691;30;20032;-89
2022/05/30 05:34:28;;;;;;;12.38;4.80;;;25.40;99.90;;;;;;4767822;30;20028;-89
2022/05/30 05:36:55;;;;;;;7.72;3.90;;;25.40;99.90;;;;;;4767673;30;20071;-89
2022/05/30 05:39:22;;;;;;;8.77;4.30;;;25.40;99.90;;;;;;4767730;30;20444;-88
2022/05/30 05:41:54;;;;;;;8.93;4.28;;;25.50;99.90;;;;;;4768172;30;20400;-90
2022/05/30 05:44:22;;;;;;;9.00;4.72;;;25.30;99.90;;;;;;4738059;30;20062;-89
2022/05/30 05:46:49;;;;;;;10.32;4.82;;;24.80;99.90;;;;;;4782171;30;20028;-91
2022/05/30 05:49:18;;;;;;;10.35;5.28;;;24.00;99.90;;;;;;4767738;30;20507;-90
2022/05/30 05:52:25;;;;;;;14.57;5.75;;;23.50;99.90;;;;;;4782860;29;20040;-91
2022/05/30 05:54:58;;;;;;;11.70;5.22;;;23.00;99.90;;;;;;4739775;30;20032;-92
2022/05/30 05:57:25;;;;;;;11.32;5.57;;;23.00;99.90;;;;;;4769430;30;20051;-92
2022/05/30 05:59:54;;;;;;;11.05;5.80;;;23.30;99.90;;;;;;4771360;30;20039;-93
2022/05/30 06:02:30;;;;;;;10.35;5.13;;;23.40;99.90;;;;;;4790660;29;20024;-92
2022/05/30 06:05:09;;;;;;;12.80;5.45;;;23.60;99.90;;;;;;4782584;29;20052;-92
2022/05/30 06:07:53;;;;;;;10.05;4.82;;;23.60;99.90;;;;;;4768887;30;20050;-93
2022/05/30 06:13:44;;;;;;;12.77;5.43;;;23.70;99.90;;;;;;4771477;30;20032;-93
2022/05/30 06:16:25;;;;;;;15.70;5.40;;;23.60;99.90;;;;;;4770804;30;20068;-93
2022/05/30 06:19:03;;;;;;;8.65;5.32;;;23.50;99.90;;;;;;4756572;30;20072;-93
2022/05/30 06:21:35;;;;;;;16.38;5.57;;;23.40;99.90;;;;;;4758355;30;20036;-93
2022/05/30 06:24:12;;;;;;;11.48;4.97;;;23.30;99.90;;;;;;4754056;30;20044;-92
2022/05/30 06:26:57;;;;;;;10.27;5.25;;;23.00;99.90;;;;;;4730490;30;20100;-93
2022/05/30 06:29:26;;;;;;;15.05;5.68;;;22.70;99.90;;;;;;4738140;30;20059;-91
2022/05/30 06:31:53;;;;;;;12.90;5.63;;;22.60;99.90;;;;;;4742232;30;20120;-93
2022/05/30 06:34:20;;;;;;;14.32;5.50;;;22.50;99.90;;;;;;4739307;30;20459;-93
2022/05/30 06:36:53;;;;;;;12.20;4.90;;;22.80;99.90;;;;;;4739963;30;20037;-92
2022/05/30 06:39:23;;;;;;;11.50;5.13;;;23.60;99.90;;;;;;4740231;30;20527;-93
2022/05/30 06:41:59;;;;;;;14.23;5.13;;;24.20;99.90;;;;;;4725683;30;20421;-93
2022/05/30 06:44:29;;;;;;;11.77;4.53;;;25.00;99.90;;;;;;4741738;30;20048;-93
2022/05/30 06:47:30;;;;;;;14.35;4.72;;;25.20;99.90;;;;;;4719637;30;20636;-92
2022/05/30 06:50:17;;;;;;;9.00;4.75;;;24.20;99.90;;;;;;4723189;30;20094;-92
2022/05/30 06:52:46;;;;;;;12.07;3.80;;;24.10;99.90;;;;;;4737166;30;20041;-93
2022/05/30 06:55:13;;;;;;;10.18;4.00;;;25.60;99.90;;;;;;4740688;30;20044;-94
2022/05/30 07:00:29;;;;;;;9.05;4.25;;;26.40;99.90;;;;;;4746739;30;20064;-92
2022/05/30 07:03:17;;;;;;;9.75;3.80;;;27.00;99.90;;;;;;4775578;30;20087;-91
2022/05/30 07:06:07;;;;;;;7.93;3.00;;;28.00;99.90;;;;;;4776007;30;20068;-92
2022/05/30 07:09:05;;;;;;;9.00;3.80;;;27.80;99.90;;;;;;4780328;30;20114;-91
2022/05/30 07:11:55;;;;;;;6.70;3.35;;;28.10;99.90;;;;;;4766471;30;20060;-92
2022/05/30 07:14:24;;;;;;;7.85;3.63;;;28.40;99.90;;;;;;4780599;30;20044;-92
2022/05/30 07:16:56;;;;;;;14.43;5.00;;;28.70;99.90;;;;;;4785837;30;20114;-92
2022/05/30 07:19:24;;;;;;;8.82;3.85;;;28.60;99.90;;;;;;4784998;30;20060;-93
2022/05/30 07:21:57;;;;;;;6.80;3.75;;;28.80;99.90;;;;;;4776848;30;20066;-92
2022/05/30 07:24:59;;;;;;;6.47;3.22;;;28.40;99.90;;;;;;4739653;30;20037;-93
2022/05/30 07:27:51;;;;;;;10.40;3.38;;;28.70;99.90;;;;;;4760477;30;20032;-92
2022/05/30 07:30:36;;;;;;;11.07;3.40;;;28.70;99.90;;;;;;4771177;30;20065;-92
2022/05/30 07:33:21;;;;;;;8.10;3.33;;;28.60;99.90;;;;;;4775167;30;20054;-94
2022/05/30 07:36:29;;;;;;;9.35;4.07;;;28.30;99.90;;;;;;4748255;30;20480;-92
2022/05/30 07:39:18;;;;;;;8.75;3.60;;;27.60;99.90;;;;;;4769469;30;20044;-91
2022/05/30 07:42:10;;;;;;;12.65;3.50;;;28.50;99.90;;;;;;4784056;30;20040;-92
2022/05/30 07:44:55;;;;;;;7.28;3.42;;;28.70;99.90;;;;;;4763699;30;20161;-92
2022/05/30 07:47:54;;;;;;;10.75;3.90;;;28.00;99.90;;;;;;4731871;30;20036;-92
2022/05/30 07:50:39;;;;;;;7.43;3.90;;;28.20;99.90;;;;;;4753437;30;20114;-92
2022/05/30 07:53:37;;;;;;;7.40;3.53;;;28.40;99.90;;;;;;4712728;30;20064;-91
2022/05/30 07:56:22;;;;;;;10.70;3.88;;;27.60;99.90;;;;;;4689139;30;20094;-92
2022/05/30 07:58:53;;;;;;;9.95;3.55;;;27.30;99.90;;;;;;4700896;30;20133;-92
2022/05/30 08:01:21;;;;;;;8.77;3.10;;;27.90;99.90;;;;;;4700934;30;20065;-92
2022/05/30 08:03:51;;;;;;;9.57;3.40;;;27.60;99.90;;;;;;4689524;30;20041;-92
2022/05/30 08:06:43;;;;;;;10.82;3.90;;;27.80;99.90;;;;;;4725578;30;20044;-93
2022/05/30 08:09:28;;;;;;;8.57;3.60;;;27.60;99.90;;;;;;4688741;30;20106;-91
2022/05/30 08:12:14;;;;;;;14.45;3.75;;;28.10;99.90;;;;;;4705140;30;20243;-91
2022/05/30 08:15:11;;;;;;;12.55;4.50;;;28.50;99.90;;;;;;4735113;30;20176;-90
2022/05/30 08:18:01;;;;;;;9.82;3.75;;;27.90;99.90;;;;;;4719978;30;20069;-90
2022/05/30 08:20:32;;;;;;;10.75;3.33;;;28.00;99.90;;;;;;4710193;30;20481;-91
2022/05/30 08:23:00;;;;;;;22.05;3.63;;;28.10;99.90;;;;;;4727082;30;20043;-91
2022/05/30 08:25:29;;;;;;;12.35;3.78;;;27.40;99.90;;;;;;4753413;30;20028;-91
2022/05/30 08:27:56;;;;;;;14.27;3.92;;;27.90;99.90;;;;;;4753706;30;20051;-92
2022/05/30 08:30:23;;;;;;;13.93;3.70;;;28.00;99.90;;;;;;4768301;30;20430;-93
2022/05/30 08:33:20;;;;;;;11.05;2.85;;;28.30;99.90;;;;;;4739133;30;20059;-93
2022/05/30 08:36:12;;;;;;;14.57;3.42;;;28.70;99.90;;;;;;4750123;30;20078;-93
2022/05/30 08:38:42;;;;;;;15.20;3.60;;;28.80;99.90;;;;;;4768393;30;20044;-93
2022/05/30 08:44:43;;;;;;;13.13;4.10;;;28.50;99.90;;;;;;4752898;30;20483;-92
2022/05/30 08:47:46;;;;;;;12.57;3.50;;;29.20;99.90;;;;;;4753008;30;20036;-93
2022/05/30 08:50:40;;;;;;;10.85;3.35;;;28.80;99.90;;;;;;4737912;30;20052;-92
2022/05/30 08:53:31;;;;;;;19.33;3.63;;;27.60;99.90;;;;;;4671262;30;20162;-92
2022/05/30 08:56:26;;;;;;;12.82;3.55;;;27.60;99.90;;;;;;5112408;27;20400;-92
2022/05/30 08:59:41;;;;;;;17.63;4.22;;;27.60;99.90;;;;;;5109455;28;20035;-92
2022/05/30 09:02:33;;;;;;;11.43;3.28;;;28.50;99.90;;;;;;5078702;28;20028;-92
2022/05/30 09:05:22;;;;;;;12.15;4.40;;;28.50;99.90;;;;;;5093670;28;20108;-93
2022/05/30 09:08:05;;;;;;;15.00;3.63;;;27.80;99.90;;;;;;5093111;28;20098;-92
2022/05/30 09:10:43;;;;;;;10.68;3.20;;;27.60;99.90;;;;;;5077152;28;20039;-92
2022/05/30 09:13:19;;;;;;;11.85;3.08;;;27.10;99.90;;;;;;5093930;28;20094;-92
2022/05/30 09:16:18;;;;;;;10.77;2.80;;;27.10;99.90;;;;;;5049619;28;20053;-91
2022/05/30 09:18:52;;;;;;;15.10;4.07;;;27.50;99.90;;;;;;5016719;28;20041;-93
2022/05/30 09:21:26;;;;;;;12.57;3.92;;;27.00;99.90;;;;;;5033477;28;20037;-93
2022/05/30 09:23:53;;;;;;;10.52;3.30;;;26.90;99.90;;;;;;5016446;28;20037;-92
2022/05/30 09:26:25;;;;;;;12.05;2.97;;;26.90;99.90;;;;;;5016295;28;20029;-92
2022/05/30 09:29:22;;;;;;;12.93;3.25;;;27.00;99.90;;;;;;5032948;28;20032;-92
2022/05/30 09:32:29;;;;;;;11.50;3.08;;;26.90;99.90;;;;;;5035806;28;20106;-92
2022/05/30 09:35:28;;;;;;;10.90;3.30;;;27.10;99.90;;;;;;5036571;28;20533;-93
2022/05/30 09:38:21;;;;;;;8.77;3.50;;;27.30;99.90;;;;;;5076655;28;20043;-92
2022/05/30 09:41:14;;;;;;;9.60;3.10;;;27.10;99.90;;;;;;5075450;28;20432;-92
2022/05/30 09:43:56;;;;;;;7.60;2.85;;;27.60;99.90;;;;;;5036712;28;20118;-92
2022/05/30 09:46:31;;;;;;;8.05;2.58;;;28.20;99.90;;;;;;5036108;28;20037;-92
2022/05/30 09:49:18;;;;;;;14.15;2.92;;;28.00;99.90;;;;;;5056201;28;20044;-92
2022/05/30 09:51:51;;;;;;;11.40;3.42;;;28.00;99.90;;;;;;5036262;28;20116;-92
2022/05/30 09:54:27;;;;;;;10.93;2.97;;;28.20;99.90;;;;;;5092018;28;20040;-91
2022/05/30 09:57:01;;;;;;;15.70;3.22;;;28.40;99.90;;;;;;5094185;28;20042;-92
2022/05/30 09:59:50;;;;;;;16.60;3.85;;;27.80;99.90;;;;;;5097631;28;20136;-92
2022/05/30 10:02:36;;;;;;;12.95;3.42;;;27.70;99.90;;;;;;5104365;28;20038;-93
2022/05/30 10:05:29;;;;;;;10.93;3.10;;;27.50;99.90;;;;;;5101598;28;20112;-93
2022/05/30 10:08:00;;;;;;;13.25;3.08;;;27.60;99.90;;;;;;5073106;28;20082;-94
2022/05/30 10:10:47;;;;;;;9.77;3.60;;;27.50;99.90;;;;;;5067023;28;20031;-94
2022/05/30 10:13:29;;;;;;;9.05;2.63;;;27.70;99.90;;;;;;5062212;28;20077;-93
2022/05/30 10:16:27;;;;;;;10.80;3.08;;;27.30;99.90;;;;;;5081072;28;20054;-93
2022/05/30 10:18:56;;;;;;;11.65;2.88;;;27.00;99.90;;;;;;5061873;28;20055;-93
2022/05/30 10:21:33;;;;;;;17.92;4.07;;;27.10;99.90;;;;;;5069999;28;20054;-93
2022/05/30 10:28:20;;;;;;;16.63;3.35;;;27.30;99.90;;;;;;5090527;28;20059;-93
2022/05/30 10:31:43;;;;;;;13.55;3.53;;;27.10;99.90;;;;;;5066520;28;20043;-92
2022/05/30 10:34:19;;;;;;;15.05;3.65;;;26.90;99.90;;;;;;5051184;28;20032;-92
2022/05/30 10:37:01;;;;;;;15.27;4.00;;;26.50;99.90;;;;;;5062135;28;20043;-92
2022/05/30 10:40:02;;;;;;;15.88;4.30;;;26.60;99.90;;;;;;5057997;28;20032;-93
2022/05/30 10:42:53;;;;;;;18.33;4.05;;;26.50;99.90;;;;;;5078734;28;20499;-93
2022/05/30 10:45:49;;;;;;;20.75;4.35;;;26.50;99.90;;;;;;5078623;28;20546;-94
2022/05/30 10:48:34;;;;;;;17.73;4.15;;;26.90;99.90;;;;;;5078428;28;20407;-93
2022/05/30 10:51:04;;;;;;;14.38;3.95;;;27.40;99.90;;;;;;5095471;28;20024;-93
2022/05/30 10:54:15;;;;;;;20.98;4.60;;;27.20;99.90;;;;;;5095356;28;20119;-93
2022/05/30 10:57:05;;;;;;;21.15;4.30;;;27.20;99.90;;;;;;5038433;28;20040;-93
2022/05/30 10:59:41;;;;;;;20.00;4.18;;;27.10;99.90;;;;;;5096284;28;20085;-92
2022/05/30 11:02:37;;;;;;;19.98;4.63;;;27.20;99.90;;;;;;5078305;28;20118;-94
2022/05/30 11:05:11;;;;;;;20.02;3.92;;;27.30;99.90;;;;;;5051193;28;20039;-93
2022/05/30 11:08:20;;;;;;;23.30;4.72;;;27.40;99.90;;;;;;5075831;28;20062;-93
2022/05/30 11:10:56;;;;;;;18.67;4.88;;;27.30;99.90;;;;;;5060317;28;20032;-93
2022/05/30 11:13:50;;;;;;;13.88;3.88;;;26.90;99.90;;;;;;5097060;28;20124;-92
2022/05/30 11:16:45;;;;;;;16.83;3.85;;;26.90;99.90;;;;;;5096375;28;20139;-92
2022/05/30 11:19:56;;;;;;;18.48;3.97;;;26.50;99.90;;;;;;5095802;28;20030;-93
2022/05/30 11:22:56;;;;;;;18.25;4.20;;;26.20;99.90;;;;;;5053773;28;20040;-93
2022/05/30 11:25:41;;;;;;;16.83;3.90;;;26.40;99.90;;;;;;5018697;28;20060;-92
2022/05/30 11:28:39;;;;;;;16.27;4.07;;;26.10;99.90;;;;;;5033064;28;20027;-93
2022/05/30 11:31:23;;;;;;;16.42;3.97;;;26.30;99.90;;;;;;5021911;28;20033;-93
2022/05/30 11:34:13;;;;;;;15.43;3.67;;;26.50;99.90;;;;;;5024760;28;20072;-93
2022/05/30 11:36:52;;;;;;;17.92;4.53;;;26.30;99.90;;;;;;5055207;28;20061;-92
2022/05/30 11:39:45;;;;;;;12.75;4.30;;;26.30;99.90;;;;;;5052461;28;20048;-91
2022/05/30 11:42:29;;;;;;;14.90;3.88;;;26.10;99.90;;;;;;5020063;28;20033;-93
2022/05/30 11:44:59;;;;;;;20.30;4.10;;;26.10;99.90;;;;;;5025294;28;20041;-93
2022/05/30 11:47:50;;;;;;;17.67;4.03;;;26.30;99.90;;;;;;5034810;28;20094;-93
2022/05/30 11:50:30;;;;;;;14.65;3.47;;;26.60;99.90;;;;;;5033325;28;20025;-93
2022/05/30 11:53:22;;;;;;;19.45;3.72;;;26.10;99.90;;;;;;5020274;28;20029;-92
2022/05/30 11:56:15;;;;;;;22.23;4.85;;;25.90;99.90;;;;;;5019990;28;20547;-93
2022/05/30 11:58:54;;;;;;;19.83;4.70;;;26.00;99.90;;;;;;5048733;28;20481;-93
2022/05/30 12:01:23;;;;;;;16.08;4.03;;;26.10;99.90;;;;;;5076825;28;20152;-93
2022/05/30 12:04:28;;;;;;;16.83;4.13;;;26.10;99.90;;;;;;5094428;28;20051;-93
2022/05/30 12:07:13;;;;;;;16.55;3.90;;;26.20;99.90;;;;;;5094171;28;20036;-92
2022/05/30 12:09:52;;;;;;;23.50;4.72;;;26.10;99.90;;;;;;5094058;28;20063;-93
2022/05/30 12:12:43;;;;;;;16.13;4.43;;;25.80;99.90;;;;;;5077298;28;20047;-93
2022/05/30 12:15:25;;;;;;;18.92;4.65;;;26.20;99.90;;;;;;5077065;28;20127;-92
2022/05/30 12:24:23;;;;;;;20.27;5.45;;;26.20;99.90;;;;;;5089123;28;20032;-93
2022/05/30 12:26:59;;;;;;;19.70;4.85;;;26.00;99.90;;;;;;5077322;28;20035;-93
2022/05/30 12:29:38;;;;;;;22.05;4.85;;;25.90;99.90;;;;;;5076571;28;20028;-93
2022/05/30 12:32:24;;;;;;;15.55;3.92;;;25.80;99.90;;;;;;5093894;28;20024;-93
2022/05/30 12:37:47;;;;;;;20.70;5.40;;;26.10;99.90;;;;;;5092068;28;20036;-92
2022/05/30 12:40:32;;;;;;;17.25;5.20;;;26.10;99.90;;;;;;5092894;28;20030;-93
2022/05/30 12:43:08;;;;;;;29.40;7.13;;;26.10;99.90;;;;;;5073079;28;20062;-93
2022/05/30 12:45:37;;;;;;;21.15;4.65;;;26.40;99.90;;;;;;5093644;28;20039;-93
2022/05/30 12:48:28;;;;;;;17.48;5.97;;;26.30;99.90;;;;;;5076296;28;20023;-92
2022/05/30 12:50:54;;;;;;;17.67;4.63;;;26.30;99.90;;;;;;5093478;28;20133;-92
2022/05/30 12:53:23;;;;;;;23.45;5.28;;;26.00;99.90;;;;;;5076197;28;20023;-93
2022/05/30 12:55:55;;;;;;;17.23;3.63;;;25.90;99.90;;;;;;5092565;28;20050;-93
2022/05/30 12:58:34;;;;;;;13.88;4.20;;;26.20;99.90;;;;;;5076365;28;20020;-92
2022/05/30 13:01:25;;;;;;;24.55;4.35;;;26.30;99.90;;;;;;5093126;28;20032;-92
2022/05/30 13:04:32;;;;;;;14.45;4.28;;;26.20;99.90;;;;;;5092988;28;20038;-93
2022/05/30 13:07:01;;;;;;;18.25;4.35;;;26.20;99.90;;;;;;5019032;28;20133;-91
2022/05/30 13:09:36;;;;;;;14.13;3.50;;;26.00;99.90;;;;;;5019156;28;20551;-94
2022/05/30 13:12:11;;;;;;;14.75;3.63;;;26.00;99.90;;;;;;5019462;28;20494;-94
2022/05/30 13:14:40;;;;;;;12.43;3.50;;;26.30;99.90;;;;;;5021131;28;20028;-93
2022/05/30 13:17:19;;;;;;;15.90;4.43;;;26.10;99.90;;;;;;5022589;28;20037;-92
2022/05/30 13:20:06;;;;;;;16.00;4.40;;;25.90;99.90;;;;;;5020004;28;20517;-93
2022/05/30 13:22:41;;;;;;;17.33;3.70;;;25.90;99.90;;;;;;5020434;28;20029;-92
2022/05/30 13:25:13;;;;;;;13.77;3.95;;;26.20;99.90;;;;;;5019659;28;20021;-92
2022/05/30 13:27:39;;;;;;;17.63;4.15;;;26.10;99.90;;;;;;5019107;28;20029;-91
2022/05/30 13:30:14;;;;;;;12.43;3.75;;;26.30;99.90;;;;;;5019601;28;20033;-92
2022/05/30 13:32:42;;;;;;;11.07;4.00;;;26.10;99.90;;;;;;5018941;28;20150;-91
2022/05/30 13:35:11;;;;;;;14.57;3.80;;;26.10;99.90;;;;;;5019835;28;20068;-92
2022/05/30 13:37:43;;;;;;;15.57;3.75;;;26.30;99.90;;;;;;5044364;28;20017;-92
2022/05/30 13:40:15;;;;;;;14.75;3.90;;;25.90;99.90;;;;;;5042240;28;20017;-91
2022/05/30 13:42:48;;;;;;;10.93;3.85;;;25.80;99.90;;;;;;5038025;28;20115;-90
2022/05/30 13:45:18;;;;;;;17.95;4.07;;;25.80;99.90;;;;;;5080035;28;20024;-91
2022/05/30 13:47:44;;;;;;;13.75;3.88;;;25.90;99.90;;;;;;5080212;28;20034;-91
2022/05/30 13:50:11;;;;;;;14.88;3.50;;;25.90;99.90;;;;;;5080039;28;20115;-91
2022/05/30 13:52:38;;;;;;;15.80;4.93;;;25.90;99.90;;;;;;5082060;28;20024;-91
2022/05/30 13:55:10;;;;;;;15.02;3.47;;;25.90;99.90;;;;;;5096198;28;20048;-91
2022/05/30 13:57:36;;;;;;;17.20;4.15;;;26.20;99.90;;;;;;5096588;28;20515;-91
2022/05/30 14:00:18;;;;;;;13.63;3.60;;;26.40;99.90;;;;;;5079405;28;20115;-91
2022/05/30 14:02:49;;;;;;;23.45;5.28;;;26.20;99.90;;;;;;5079251;28;20068;-91
2022/05/30 14:05:32;;;;;;;23.00;4.80;;;26.30;99.90;;;;;;5076535;28;20020;-91